sensor_id;sensor_type;location;lat;lon;timestamp;pressure;altitude;pressure_sealevel;temperature;humidity
1832;BME280;1680;48.106;11.708;2023-08-06T00:01:02;94865.34;;;15.99;100.00
1832;BME280;1680;48.106;11.708;2023-08-06T00:03:29;94852.19;;;15.89;100.00
1832;BME280;1680;48.106;11.708;2023-08-06T00:05:56;94874.88;;;16.00;100.00
1832;BME280;1680;48.106;11.708;2023-08-06T00:08:24;94871.69;;;15.98;100.00
1832;BME280;1680;48.106;11.708;2023-08-06T00:10:51;94880.41;;;16.04;100.00
1832;BME280;1680;48.106;11.708;2023-08-06T00:13:18;94885.44;;;16.05;100.00
1832;BME280;1680;48.106;11.708;2023-08-06T00:15:46;94838.78;;;15.71;100.00
1832;BME280;1680;48.106;11.708;2023-08-06T00:18:17;94886.19;;;16.11;100.00
1832;BME280;1680;48.106;11.708;2023-08-06T00:20:44;94874.38;;;15.93;100.00
1832;BME280;1680;48.106;11.708;2023-08-06T00:23:11;94882.84;;;15.90;100.00
1832;BME280;1680;48.106;11.708;2023-08-06T00:25:38;94872.53;;;15.89;100.00
1832;BME280;1680;48.106;11.708;2023-08-06T00:28:05;94883.63;;;15.96;100.00
1832;BME280;1680;48.106;11.708;2023-08-06T00:30:33;94882.84;;;15.95;100.00
1832;BME280;1680;48.106;11.708;2023-08-06T00:33:01;94880.16;;;16.00;100.00
1832;BME280;1680;48.106;11.708;2023-08-06T00:35:29;94886.84;;;15.83;100.00
1832;BME280;1680;48.106;11.708;2023-08-06T00:37:57;94883.16;;;15.79;100.00
1832;BME280;1680;48.106;11.708;2023-08-06T00:40:24;94875.50;;;15.67;100.00
1832;BME280;1680;48.106;11.708;2023-08-06T00:42:53;94878.16;;;15.67;100.00
1832;BME280;1680;48.106;11.708;2023-08-06T00:45:21;94887.09;;;15.81;100.00
1832;BME280;1680;48.106;11.708;2023-08-06T00:47:48;94874.19;;;15.70;100.00
1832;BME280;1680;48.106;11.708;2023-08-06T00:50:17;94873.41;;;15.69;100.00
1832;BME280;1680;48.106;11.708;2023-08-06T00:52:46;94864.63;;;15.79;100.00
1832;BME280;1680;48.106;11.708;2023-08-06T00:55:14;94855.41;;;15.71;100.00
1832;BME280;1680;48.106;11.708;2023-08-06T00:57:41;94805.53;;;15.45;100.00
1832;BME280;1680;48.106;11.708;2023-08-06T01:00:10;94854.41;;;15.62;100.00
1832;BME280;1680;48.106;11.708;2023-08-06T01:02:37;94859.19;;;15.46;100.00
1832;BME280;1680;48.106;11.708;2023-08-06T01:05:05;94867.09;;;15.65;100.00
1832;BME280;1680;48.106;11.708;2023-08-06T01:07:46;94824.38;;;15.29;100.00
1832;BME280;1680;48.106;11.708;2023-08-06T01:10:30;94871.84;;;15.53;100.00
1832;BME280;1680;48.106;11.708;2023-08-06T01:13:07;94867.09;;;15.55;100.00
1832;BME280;1680;48.106;11.708;2023-08-06T01:15:41;94863.97;;;15.49;100.00
1832;BME280;1680;48.106;11.708;2023-08-06T01:18:11;94861.84;;;15.46;100.00
1832;BME280;1680;48.106;11.708;2023-08-06T01:20:39;94858.16;;;15.37;100.00
1832;BME280;1680;48.106;11.708;2023-08-06T01:23:07;94859.25;;;15.31;100.00
1832;BME280;1680;48.106;11.708;2023-08-06T01:25:36;94841.25;;;15.23;100.00
1832;BME280;1680;48.106;11.708;2023-08-06T01:28:11;94860.28;;;15.30;100.00
1832;BME280;1680;48.106;11.708;2023-08-06T01:30:41;94836.00;;;15.18;100.00
1832;BME280;1680;48.106;11.708;2023-08-06T01:33:14;94851.28;;;15.21;100.00
1832;BME280;1680;48.106;11.708;2023-08-06T01:35:45;94851.31;;;15.16;100.00
1832;BME280;1680;48.106;11.708;2023-08-06T01:38:13;94849.47;;;15.11;100.00
1832;BME280;1680;48.106;11.708;2023-08-06T01:40:40;94853.94;;;15.11;100.00
1832;BME280;1680;48.106;11.708;2023-08-06T01:43:07;94848.66;;;15.16;100.00
1832;BME280;1680;48.106;11.708;2023-08-06T01:45:35;94839.94;;;15.15;100.00
1832;BME280;1680;48.106;11.708;2023-08-06T01:48:03;94851.81;;;15.23;100.00
1832;BME280;1680;48.106;11.708;2023-08-06T01:50:30;94846.53;;;15.23;100.00
1832;BME280;1680;48.106;11.708;2023-08-06T01:52:59;94848.09;;;15.24;100.00
1832;BME280;1680;48.106;11.708;2023-08-06T01:55:26;94848.38;;;15.17;100.00
1832;BME280;1680;48.106;11.708;2023-08-06T01:57:53;94846.03;;;15.16;100.00
1832;BME280;1680;48.106;11.708;2023-08-06T02:00:20;94846.56;;;15.13;100.00
1832;BME280;1680;48.106;11.708;2023-08-06T02:02:47;94851.03;;;15.17;100.00
1832;BME280;1680;48.106;11.708;2023-08-06T02:05:15;94830.16;;;15.06;100.00
1832;BME280;1680;48.106;11.708;2023-08-06T02:07:42;94839.41;;;15.13;100.00
1832;BME280;1680;48.106;11.708;2023-08-06T02:10:10;94834.16;;;15.03;100.00
1832;BME280;1680;48.106;11.708;2023-08-06T02:12:37;94832.81;;;15.11;100.00
1832;BME280;1680;48.106;11.708;2023-08-06T02:15:06;94831.75;;;15.12;100.00
1832;BME280;1680;48.106;11.708;2023-08-06T02:17:33;94819.09;;;15.09;100.00
1832;BME280;1680;48.106;11.708;2023-08-06T02:20:00;94806.97;;;15.03;100.00
1832;BME280;1680;48.106;11.708;2023-08-06T02:22:27;94819.09;;;15.14;100.00
1832;BME280;1680;48.106;11.708;2023-08-06T02:24:54;94792.16;;;14.92;100.00
1832;BME280;1680;48.106;11.708;2023-08-06T02:27:23;94812.22;;;15.08;100.00
1832;BME280;1680;48.106;11.708;2023-08-06T02:29:50;94808.03;;;15.02;100.00
1832;BME280;1680;48.106;11.708;2023-08-06T02:32:17;94801.13;;;15.06;100.00
1832;BME280;1680;48.106;11.708;2023-08-06T02:34:44;94806.41;;;15.06;100.00
1832;BME280;1680;48.106;11.708;2023-08-06T02:37:12;94787.16;;;14.90;100.00
1832;BME280;1680;48.106;11.708;2023-08-06T02:39:39;94799.28;;;15.06;100.00
1832;BME280;1680;48.106;11.708;2023-08-06T02:42:06;94807.22;;;15.06;100.00
1832;BME280;1680;48.106;11.708;2023-08-06T02:44:35;94797.97;;;14.99;100.00
1832;BME280;1680;48.106;11.708;2023-08-06T02:47:02;94777.69;;;14.79;100.00
1832;BME280;1680;48.106;11.708;2023-08-06T02:49:30;94783.50;;;14.81;100.00
1832;BME280;1680;48.106;11.708;2023-08-06T02:51:57;94776.34;;;14.92;100.00
1832;BME280;1680;48.106;11.708;2023-08-06T02:54:24;94777.91;;;14.93;100.00
1832;BME280;1680;48.106;11.708;2023-08-06T02:56:51;94770.31;;;14.81;100.00
1832;BME280;1680;48.106;11.708;2023-08-06T02:59:18;94762.09;;;14.88;100.00
1832;BME280;1680;48.106;11.708;2023-08-06T03:01:47;94758.41;;;14.84;100.00
1832;BME280;1680;48.106;11.708;2023-08-06T03:04:14;94759.47;;;14.88;100.00
1832;BME280;1680;48.106;11.708;2023-08-06T03:06:43;94705.16;;;14.52;100.00
1832;BME280;1680;48.106;11.708;2023-08-06T03:09:10;94754.72;;;14.80;100.00
1832;BME280;1680;48.106;11.708;2023-08-06T03:11:37;94756.31;;;14.71;100.00
1832;BME280;1680;48.106;11.708;2023-08-06T03:14:04;94757.38;;;14.70;100.00
1832;BME280;1680;48.106;11.708;2023-08-06T03:16:31;94746.00;;;14.69;100.00
1832;BME280;1680;48.106;11.708;2023-08-06T03:19:00;94760.53;;;14.62;100.00
1832;BME280;1680;48.106;11.708;2023-08-06T03:21:27;94758.94;;;14.61;100.00
1832;BME280;1680;48.106;11.708;2023-08-06T03:23:54;94770.06;;;14.58;100.00
1832;BME280;1680;48.106;11.708;2023-08-06T03:26:21;94714.66;;;14.23;100.00
1832;BME280;1680;48.106;11.708;2023-08-06T03:28:49;94769.50;;;14.61;100.00
1832;BME280;1680;48.106;11.708;2023-08-06T03:31:16;94781.13;;;14.55;100.00
1832;BME280;1680;48.106;11.708;2023-08-06T03:33:43;94776.91;;;14.64;100.00
1832;BME280;1680;48.106;11.708;2023-08-06T03:36:11;94770.59;;;14.55;100.00
1832;BME280;1680;48.106;11.708;2023-08-06T03:38:38;94766.88;;;14.61;100.00
1832;BME280;1680;48.106;11.708;2023-08-06T03:41:06;94763.72;;;14.59;100.00
1832;BME280;1680;48.106;11.708;2023-08-06T03:43:33;94753.44;;;14.48;100.00
1832;BME280;1680;48.106;11.708;2023-08-06T03:46:00;94747.34;;;14.32;100.00
1832;BME280;1680;48.106;11.708;2023-08-06T03:48:27;94724.16;;;14.19;100.00
1832;BME280;1680;48.106;11.708;2023-08-06T03:50:54;94766.38;;;14.44;100.00
1832;BME280;1680;48.106;11.708;2023-08-06T03:53:23;94763.19;;;14.47;100.00
1832;BME280;1680;48.106;11.708;2023-08-06T03:55:50;94766.88;;;14.46;100.00
1832;BME280;1680;48.106;11.708;2023-08-06T03:58:17;94763.72;;;14.44;100.00
1832;BME280;1680;48.106;11.708;2023-08-06T04:00:45;94758.44;;;14.49;100.00
1832;BME280;1680;48.106;11.708;2023-08-06T04:03:12;94756.06;;;14.43;100.00
1832;BME280;1680;48.106;11.708;2023-08-06T04:05:39;94762.16;;;14.43;100.00
1832;BME280;1680;48.106;11.708;2023-08-06T04:08:06;94760.28;;;14.29;100.00
1832;BME280;1680;48.106;11.708;2023-08-06T04:10:35;94760.03;;;14.30;100.00
1832;BME280;1680;48.106;11.708;2023-08-06T04:13:02;94750.00;;;14.22;100.00
1832;BME280;1680;48.106;11.708;2023-08-06T04:15:29;94767.13;;;14.40;100.00
1832;BME280;1680;48.106;11.708;2023-08-06T04:17:56;94764.22;;;14.31;100.00
1832;BME280;1680;48.106;11.708;2023-08-06T04:20:23;94757.91;;;14.22;100.00
1832;BME280;1680;48.106;11.708;2023-08-06T04:22:50;94761.09;;;14.39;100.00
1832;BME280;1680;48.106;11.708;2023-08-06T04:25:23;94757.66;;;14.34;100.00
1832;BME280;1680;48.106;11.708;2023-08-06T04:27:52;94748.41;;;14.31;100.00
1832;BME280;1680;48.106;11.708;2023-08-06T04:30:19;94753.16;;;14.34;100.00
1832;BME280;1680;48.106;11.708;2023-08-06T04:32:47;94756.31;;;14.46;100.00
1832;BME280;1680;48.106;11.708;2023-08-06T04:35:14;94725.75;;;14.30;100.00
1832;BME280;1680;48.106;11.708;2023-08-06T04:37:41;94756.34;;;14.41;100.00
1832;BME280;1680;48.106;11.708;2023-08-06T04:40:09;94761.59;;;14.46;100.00
1832;BME280;1680;48.106;11.708;2023-08-06T04:42:36;94761.88;;;14.54;100.00
1832;BME280;1680;48.106;11.708;2023-08-06T04:45:06;94762.69;;;14.60;100.00
1832;BME280;1680;48.106;11.708;2023-08-06T04:47:33;94761.06;;;14.69;100.00
1832;BME280;1680;48.106;11.708;2023-08-06T04:50:00;94762.09;;;14.88;100.00
1832;BME280;1680;48.106;11.708;2023-08-06T04:52:28;94757.63;;;14.73;100.00
1832;BME280;1680;48.106;11.708;2023-08-06T04:54:57;94771.59;;;14.79;100.00
1832;BME280;1680;48.106;11.708;2023-08-06T04:57:24;94765.25;;;14.95;100.00
1832;BME280;1680;48.106;11.708;2023-08-06T04:59:51;94764.22;;;14.86;100.00
1832;BME280;1680;48.106;11.708;2023-08-06T05:02:20;94768.16;;;14.93;100.00
1832;BME280;1680;48.106;11.708;2023-08-06T05:04:47;94738.91;;;14.75;100.00
1832;BME280;1680;48.106;11.708;2023-08-06T05:07:14;94760.72;;;15.10;100.00
1832;BME280;1680;48.106;11.708;2023-08-06T05:09:41;94759.97;;;15.05;100.00
1832;BME280;1680;48.106;11.708;2023-08-06T05:12:09;94772.06;;;15.11;100.00
1832;BME280;1680;48.106;11.708;2023-08-06T05:14:36;94772.59;;;15.13;100.00
1832;BME280;1680;48.106;11.708;2023-08-06T05:17:03;94772.06;;;15.06;100.00
1832;BME280;1680;48.106;11.708;2023-08-06T05:19:32;94772.06;;;15.06;100.00
1832;BME280;1680;48.106;11.708;2023-08-06T05:21:59;94765.25;;;15.05;100.00
1832;BME280;1680;48.106;11.708;2023-08-06T05:24:27;94761.03;;;14.99;100.00
1832;BME280;1680;48.106;11.708;2023-08-06T05:26:54;94757.84;;;14.97;100.00
1832;BME280;1680;48.106;11.708;2023-08-06T05:29:21;94744.66;;;14.92;100.00
1832;BME280;1680;48.106;11.708;2023-08-06T05:31:48;94773.66;;;15.07;100.00
1832;BME280;1680;48.106;11.708;2023-08-06T05:34:16;94772.06;;;15.06;100.00
1832;BME280;1680;48.106;11.708;2023-08-06T05:36:44;94762.31;;;15.11;100.00
1832;BME280;1680;48.106;11.708;2023-08-06T05:39:11;94762.84;;;15.08;100.00
1832;BME280;1680;48.106;11.708;2023-08-06T05:41:38;94771.53;;;15.09;100.00
1832;BME280;1680;48.106;11.708;2023-08-06T05:44:05;94776.31;;;15.07;100.00
1832;BME280;1680;48.106;11.708;2023-08-06T05:46:32;94777.38;;;15.01;100.00
1832;BME280;1680;48.106;11.708;2023-08-06T05:49:00;94778.97;;;15.02;100.00
1832;BME280;1680;48.106;11.708;2023-08-06T05:51:27;94740.19;;;14.92;100.00
1832;BME280;1680;48.106;11.708;2023-08-06T05:53:55;94752.03;;;15.00;100.00
1832;BME280;1680;48.106;11.708;2023-08-06T05:56:22;94762.03;;;15.13;100.00
1832;BME280;1680;48.106;11.708;2023-08-06T05:58:50;94768.09;;;15.13;100.00
1832;BME280;1680;48.106;11.708;2023-08-06T06:01:18;94776.81;;;15.19;100.00
1832;BME280;1680;48.106;11.708;2023-08-06T06:03:45;94772.56;;;15.23;100.00
1832;BME280;1680;48.106;11.708;2023-08-06T06:06:12;94768.34;;;15.27;100.00
1832;BME280;1680;48.106;11.708;2023-08-06T06:08:39;94767.28;;;15.33;100.00
1832;BME280;1680;48.106;11.708;2023-08-06T06:11:08;94775.75;;;15.35;100.00
1832;BME280;1680;48.106;11.708;2023-08-06T06:13:35;94775.13;;;15.52;100.00
1832;BME280;1680;48.106;11.708;2023-08-06T06:16:02;94785.19;;;15.51;100.00
1832;BME280;1680;48.106;11.708;2023-08-06T06:18:30;94786.75;;;15.52;100.00
1832;BME280;1680;48.106;11.708;2023-08-06T06:20:57;94782.56;;;15.46;100.00
1832;BME280;1680;48.106;11.708;2023-08-06T06:23:24;94777.00;;;15.47;100.00
1832;BME280;1680;48.106;11.708;2023-08-06T06:25:52;94780.91;;;15.64;100.00
1832;BME280;1680;48.106;11.708;2023-08-06T06:28:20;94766.63;;;15.65;100.00
1832;BME280;1680;48.106;11.708;2023-08-06T06:30:47;94790.38;;;15.75;100.00
1832;BME280;1680;48.106;11.708;2023-08-06T06:33:15;94792.47;;;15.78;100.00
1832;BME280;1680;48.106;11.708;2023-08-06T06:35:42;94773.16;;;15.83;100.00
1832;BME280;1680;48.106;11.708;2023-08-06T06:38:09;94783.41;;;15.89;100.00
1832;BME280;1680;48.106;11.708;2023-08-06T06:40:36;94736.97;;;15.73;100.00
1832;BME280;1680;48.106;11.708;2023-08-06T06:43:03;94783.34;;;15.99;100.00
1832;BME280;1680;48.106;11.708;2023-08-06T06:45:32;94785.91;;;16.14;100.00
1832;BME280;1680;48.106;11.708;2023-08-06T06:47:59;94783.22;;;16.24;100.00
1832;BME280;1680;48.106;11.708;2023-08-06T06:50:26;94780.75;;;16.38;100.00
1832;BME280;1680;48.106;11.708;2023-08-06T06:52:53;94775.63;;;16.51;100.00
1832;BME280;1680;48.106;11.708;2023-08-06T06:55:20;94775.63;;;16.51;100.00
1832;BME280;1680;48.106;11.708;2023-08-06T06:57:48;94776.91;;;16.58;100.00
1832;BME280;1680;48.106;11.708;2023-08-06T07:00:15;94781.13;;;16.59;100.00
1832;BME280;1680;48.106;11.708;2023-08-06T07:02:43;94780.88;;;16.56;100.00
1832;BME280;1680;48.106;11.708;2023-08-06T07:05:10;94780.50;;;16.67;100.00
1832;BME280;1680;48.106;11.708;2023-08-06T07:07:37;94777.28;;;16.75;100.00
1832;BME280;1680;48.106;11.708;2023-08-06T07:10:06;94784.16;;;16.76;100.00
1832;BME280;1680;48.106;11.708;2023-08-06T07:12:33;94754.78;;;16.73;100.00
1832;BME280;1680;48.106;11.708;2023-08-06T07:15:03;94780.25;;;16.97;100.00
1832;BME280;1680;48.106;11.708;2023-08-06T07:17:30;94783.31;;;17.09;100.00
1832;BME280;1680;48.106;11.708;2023-08-06T07:19:58;94789.84;;;17.17;100.00
1832;BME280;1680;48.106;11.708;2023-08-06T07:22:25;94775.59;;;17.13;100.00
1832;BME280;1680;48.106;11.708;2023-08-06T07:24:53;94783.44;;;17.23;100.00
1832;BME280;1680;48.106;11.708;2023-08-06T07:27:20;94795.22;;;17.12;100.00
1832;BME280;1680;48.106;11.708;2023-08-06T07:29:47;94788.78;;;17.18;100.00
1832;BME280;1680;48.106;11.708;2023-08-06T07:32:15;94789.03;;;17.21;100.00
1832;BME280;1680;48.106;11.708;2023-08-06T07:34:42;94788.34;;;17.11;100.00
1832;BME280;1680;48.106;11.708;2023-08-06T07:37:10;94792.31;;;16.85;100.00
1832;BME280;1680;48.106;11.708;2023-08-06T07:39:37;94795.53;;;16.77;100.00
1832;BME280;1680;48.106;11.708;2023-08-06T07:42:05;94789.81;;;16.65;100.00
1832;BME280;1680;48.106;11.708;2023-08-06T07:44:32;94789.28;;;16.63;100.00
1832;BME280;1680;48.106;11.708;2023-08-06T07:46:59;94799.38;;;16.61;100.00
1832;BME280;1680;48.106;11.708;2023-08-06T07:49:26;94783.44;;;16.66;100.00
1832;BME280;1680;48.106;11.708;2023-08-06T07:51:54;94780.84;;;16.61;100.00
1832;BME280;1680;48.106;11.708;2023-08-06T07:54:22;94775.97;;;16.73;100.00
1832;BME280;1680;48.106;11.708;2023-08-06T07:56:50;94780.28;;;16.64;100.00
1832;BME280;1680;48.106;11.708;2023-08-06T07:59:17;94784.00;;;16.63;100.00
1832;BME280;1680;48.106;11.708;2023-08-06T08:01:45;94778.78;;;16.53;100.00
1832;BME280;1680;48.106;11.708;2023-08-06T08:04:12;94767.09;;;16.59;100.00
1832;BME280;1680;48.106;11.708;2023-08-06T08:06:39;94754.69;;;16.54;100.00
1832;BME280;1680;48.106;11.708;2023-08-06T08:09:06;94725.53;;;16.59;100.00
1832;BME280;1680;48.106;11.708;2023-08-06T08:11:34;94745.09;;;16.87;100.00
1832;BME280;1680;48.106;11.708;2023-08-06T08:14:01;94752.91;;;17.02;100.00
1832;BME280;1680;48.106;11.708;2023-08-06T08:16:29;94739.56;;;17.12;100.00
1832;BME280;1680;48.106;11.708;2023-08-06T08:18:56;94735.69;;;17.28;100.00
1832;BME280;1680;48.106;11.708;2023-08-06T08:21:23;94728.66;;;17.42;100.00
1832;BME280;1680;48.106;11.708;2023-08-06T08:23:50;94727.72;;;17.74;100.00
1832;BME280;1680;48.106;11.708;2023-08-06T08:26:17;94720.19;;;17.81;100.00
1832;BME280;1680;48.106;11.708;2023-08-06T08:28:46;94716.16;;;17.84;100.00
1832;BME280;1680;48.106;11.708;2023-08-06T08:31:13;94710.94;;;17.97;100.00
1832;BME280;1680;48.106;11.708;2023-08-06T08:33:41;94719.94;;;18.15;100.00
1832;BME280;1680;48.106;11.708;2023-08-06T08:36:09;94723.91;;;18.17;100.00
1832;BME280;1680;48.106;11.708;2023-08-06T08:38:36;94718.78;;;18.26;100.00
1832;BME280;1680;48.106;11.708;2023-08-06T08:41:03;94722.59;;;18.52;100.00
1832;BME280;1680;48.106;11.708;2023-08-06T08:43:31;94726.53;;;18.54;90.57
1832;BME280;1680;48.106;11.708;2023-08-06T08:46:00;94731.06;;;18.53;93.43
1832;BME280;1680;48.106;11.708;2023-08-06T08:48:27;94734.63;;;18.62;87.75
1832;BME280;1680;48.106;11.708;2023-08-06T08:50:55;94733.47;;;18.82;89.87
1832;BME280;1680;48.106;11.708;2023-08-06T08:53:22;94744.09;;;18.82;85.42
1832;BME280;1680;48.106;11.708;2023-08-06T08:55:50;94737.72;;;18.51;88.16
1832;BME280;1680;48.106;11.708;2023-08-06T08:58:18;94730.56;;;18.15;85.21
1832;BME280;1680;48.106;11.708;2023-08-06T09:00:46;94735.16;;;17.91;84.94
1832;BME280;1680;48.106;11.708;2023-08-06T09:03:16;94740.47;;;17.72;85.63
1832;BME280;1680;48.106;11.708;2023-08-06T09:05:44;94755.75;;;17.57;87.35
1832;BME280;1680;48.106;11.708;2023-08-06T09:08:15;94755.09;;;17.47;86.71
1832;BME280;1680;48.106;11.708;2023-08-06T09:10:44;94739.94;;;17.52;88.63
1832;BME280;1680;48.106;11.708;2023-08-06T09:13:13;94750.56;;;17.70;87.68
1832;BME280;1680;48.106;11.708;2023-08-06T09:15:41;94740.53;;;17.67;85.09
1832;BME280;1680;48.106;11.708;2023-08-06T09:18:09;94759.59;;;17.88;87.32
1832;BME280;1680;48.106;11.708;2023-08-06T09:20:39;94771.66;;;17.80;89.37
1832;BME280;1680;48.106;11.708;2023-08-06T09:23:09;94753.03;;;17.44;89.50
1832;BME280;1680;48.106;11.708;2023-08-06T09:25:38;94770.91;;;17.33;90.09
1832;BME280;1680;48.106;11.708;2023-08-06T09:28:06;94775.50;;;17.23;92.88
1832;BME280;1680;48.106;11.708;2023-08-06T09:30:35;94764.53;;;17.34;94.58
1832;BME280;1680;48.106;11.708;2023-08-06T09:33:03;94765.09;;;17.54;92.36
1832;BME280;1680;48.106;11.708;2023-08-06T09:35:31;94768.81;;;17.53;90.57
1832;BME280;1680;48.106;11.708;2023-08-06T09:38:06;94754.13;;;17.61;92.15
1832;BME280;1680;48.106;11.708;2023-08-06T09:40:35;94763.03;;;17.47;89.29
1832;BME280;1680;48.106;11.708;2023-08-06T09:43:02;94750.84;;;17.46;89.71
1832;BME280;1680;48.106;11.708;2023-08-06T09:45:31;94780.88;;;17.64;89.42
1832;BME280;1680;48.106;11.708;2023-08-06T09:47:59;94771.38;;;17.82;88.44
1832;BME280;1680;48.106;11.708;2023-08-06T09:50:29;94760.78;;;18.00;88.78
1832;BME280;1680;48.106;11.708;2023-08-06T09:52:57;94779.00;;;18.07;86.06
1832;BME280;1680;48.106;11.708;2023-08-06T09:55:26;94777.25;;;17.97;86.73
1832;BME280;1680;48.106;11.708;2023-08-06T09:57:54;94758.47;;;17.94;83.79
1832;BME280;1680;48.106;11.708;2023-08-06T10:00:22;94773.69;;;17.88;83.23
1832;BME280;1680;48.106;11.708;2023-08-06T10:02:49;94762.78;;;17.90;85.67
1832;BME280;1680;48.106;11.708;2023-08-06T10:05:20;94768.28;;;17.93;81.44
1832;BME280;1680;48.106;11.708;2023-08-06T10:07:48;94743.69;;;17.88;82.66
1832;BME280;1680;48.106;11.708;2023-08-06T10:10:16;94769.97;;;18.08;83.27
1832;BME280;1680;48.106;11.708;2023-08-06T10:12:48;94764.00;;;18.16;81.47
1832;BME280;1680;48.106;11.708;2023-08-06T10:15:21;94765.94;;;18.29;84.62
1832;BME280;1680;48.106;11.708;2023-08-06T10:17:51;94769.50;;;18.01;82.43
1832;BME280;1680;48.106;11.708;2023-08-06T10:20:20;94759.59;;;17.69;82.36
1832;BME280;1680;48.106;11.708;2023-08-06T10:22:59;94739.66;;;17.25;82.63
1832;BME280;1680;48.106;11.708;2023-08-06T10:25:30;94769.84;;;17.29;84.39
1832;BME280;1680;48.106;11.708;2023-08-06T10:28:00;94774.88;;;17.31;86.34
1832;BME280;1680;48.106;11.708;2023-08-06T10:30:29;94769.88;;;17.01;84.49
1832;BME280;1680;48.106;11.708;2023-08-06T10:32:58;94774.53;;;17.14;86.90
1832;BME280;1680;48.106;11.708;2023-08-06T10:35:31;94762.63;;;17.40;87.38
1832;BME280;1680;48.106;11.708;2023-08-06T10:38:07;94764.69;;;17.84;86.77
1832;BME280;1680;48.106;11.708;2023-08-06T10:40:35;94775.19;;;17.94;84.13
1832;BME280;1680;48.106;11.708;2023-08-06T10:43:04;94769.09;;;17.94;81.76
1832;BME280;1680;48.106;11.708;2023-08-06T10:45:37;94751.38;;;17.89;81.95
1832;BME280;1680;48.106;11.708;2023-08-06T10:48:07;94771.38;;;17.82;82.76
1832;BME280;1680;48.106;11.708;2023-08-06T10:50:34;94782.47;;;17.84;81.85
1832;BME280;1680;48.106;11.708;2023-08-06T10:53:04;94781.41;;;17.85;81.61
1832;BME280;1680;48.106;11.708;2023-08-06T10:55:32;94769.13;;;17.70;80.99
1832;BME280;1680;48.106;11.708;2023-08-06T10:57:59;94789.88;;;17.63;82.80
1832;BME280;1680;48.106;11.708;2023-08-06T11:00:28;94782.75;;;17.82;82.75
1832;BME280;1680;48.106;11.708;2023-08-06T11:02:55;94731.03;;;17.61;81.87
1832;BME280;1680;48.106;11.708;2023-08-06T11:05:22;94774.56;;;18.02;81.02
1832;BME280;1680;48.106;11.708;2023-08-06T11:07:49;94766.28;;;17.85;81.76
1832;BME280;1680;48.106;11.708;2023-08-06T11:10:18;94778.03;;;17.79;82.76
1832;BME280;1680;48.106;11.708;2023-08-06T11:12:45;94778.13;;;18.11;81.38
1832;BME280;1680;48.106;11.708;2023-08-06T11:15:12;94784.63;;;18.24;80.38
1832;BME280;1680;48.106;11.708;2023-08-06T11:17:41;94782.78;;;18.01;81.30
1832;BME280;1680;48.106;11.708;2023-08-06T11:20:09;94754.09;;;17.84;80.72
1832;BME280;1680;48.106;11.708;2023-08-06T11:22:37;94755.41;;;18.05;80.35
1832;BME280;1680;48.106;11.708;2023-08-06T11:25:06;94788.63;;;18.58;82.22
1832;BME280;1680;48.106;11.708;2023-08-06T11:27:33;94801.69;;;18.36;81.46
1832;BME280;1680;48.106;11.708;2023-08-06T11:30:01;94790.88;;;18.09;81.61
1832;BME280;1680;48.106;11.708;2023-08-06T11:32:28;94793.38;;;17.82;82.87
1832;BME280;1680;48.106;11.708;2023-08-06T11:34:56;94815.72;;;17.76;83.22
1832;BME280;1680;48.106;11.708;2023-08-06T11:37:24;94790.69;;;17.41;83.24
1832;BME280;1680;48.106;11.708;2023-08-06T11:39:52;94787.88;;;17.55;84.50
1832;BME280;1680;48.106;11.708;2023-08-06T11:42:19;94807.53;;;17.73;84.45
1832;BME280;1680;48.106;11.708;2023-08-06T11:44:46;94825.94;;;18.06;82.41
1832;BME280;1680;48.106;11.708;2023-08-06T11:47:15;94756.06;;;17.55;83.14
1832;BME280;1680;48.106;11.708;2023-08-06T11:49:44;94825.06;;;17.92;85.79
1832;BME280;1680;48.106;11.708;2023-08-06T11:52:18;94812.41;;;17.89;84.95
1832;BME280;1680;48.106;11.708;2023-08-06T11:54:47;94825.84;;;18.16;84.81
1832;BME280;1680;48.106;11.708;2023-08-06T11:57:15;94828.59;;;18.30;85.85
1832;BME280;1680;48.106;11.708;2023-08-06T11:59:43;94842.72;;;18.44;84.15
1832;BME280;1680;48.106;11.708;2023-08-06T12:02:10;94827.25;;;18.32;82.87
1832;BME280;1680;48.106;11.708;2023-08-06T12:05:03;94825.88;;;18.35;83.46
1832;BME280;1680;48.106;11.708;2023-08-06T12:07:33;94839.09;;;18.40;82.17
1832;BME280;1680;48.106;11.708;2023-08-06T12:10:03;94826.88;;;18.39;83.85
1832;BME280;1680;48.106;11.708;2023-08-06T12:12:31;94850.81;;;18.15;81.98
1832;BME280;1680;48.106;11.708;2023-08-06T12:14:58;94839.69;;;18.13;81.07
1832;BME280;1680;48.106;11.708;2023-08-06T12:17:26;94835.88;;;17.77;83.25
1832;BME280;1680;48.106;11.708;2023-08-06T12:19:53;94841.50;;;17.71;83.50
1832;BME280;1680;48.106;11.708;2023-08-06T12:22:23;94847.69;;;17.66;84.13
1832;BME280;1680;48.106;11.708;2023-08-06T12:24:51;94784.88;;;17.39;84.96
1832;BME280;1680;48.106;11.708;2023-08-06T12:27:18;94842.81;;;17.97;84.12
1832;BME280;1680;48.106;11.708;2023-08-06T12:29:46;94816.91;;;18.07;84.80
1832;BME280;1680;48.106;11.708;2023-08-06T12:32:14;94833.25;;;18.19;84.12
1832;BME280;1680;48.106;11.708;2023-08-06T12:34:42;94835.63;;;17.97;83.38
1832;BME280;1680;48.106;11.708;2023-08-06T12:37:09;94835.34;;;17.75;85.09
1832;BME280;1680;48.106;11.708;2023-08-06T12:39:37;94836.03;;;17.86;84.92
1832;BME280;1680;48.106;11.708;2023-08-06T12:42:06;94837.22;;;17.75;84.30
1832;BME280;1680;48.106;11.708;2023-08-06T12:44:33;94821.63;;;17.73;86.00
1832;BME280;1680;48.106;11.708;2023-08-06T12:47:01;94834.03;;;17.78;87.70
1832;BME280;1680;48.106;11.708;2023-08-06T12:49:28;94833.69;;;17.84;86.98
1832;BME280;1680;48.106;11.708;2023-08-06T12:51:58;94831.53;;;17.63;87.61
1832;BME280;1680;48.106;11.708;2023-08-06T12:54:26;94819.13;;;17.58;91.64
1832;BME280;1680;48.106;11.708;2023-08-06T12:56:53;94819.63;;;17.09;93.54
1832;BME280;1680;48.106;11.708;2023-08-06T12:59:22;94861.59;;;16.97;97.10
1832;BME280;1680;48.106;11.708;2023-08-06T13:01:49;94855.78;;;16.95;97.80
1832;BME280;1680;48.106;11.708;2023-08-06T13:04:18;94851.97;;;17.06;100.00
1832;BME280;1680;48.106;11.708;2023-08-06T13:06:45;94858.00;;;17.45;100.00
1832;BME280;1680;48.106;11.708;2023-08-06T13:09:13;94858.16;;;17.76;98.45